sensor_id;sensor_type;location;lat;lon;timestamp;pressure;altitude;pressure_sealevel;temperature;humidity
77351;BME280;66420;50.246;14.320;2023-02-26T00:00:57;98632.97;;;-1.16;86.22
77351;BME280;66420;50.246;14.320;2023-02-26T00:03:41;98631.09;;;-1.15;86.14
77351;BME280;66420;50.246;14.320;2023-02-26T00:06:27;98636.72;;;-1.17;85.67
77351;BME280;66420;50.246;14.320;2023-02-26T00:09:12;98640.69;;;-1.24;86.09
77351;BME280;66420;50.246;14.320;2023-02-26T00:11:58;98648.50;;;-1.18;86.05
77351;BME280;66420;50.246;14.320;2023-02-26T00:14:43;98648.25;;;-1.16;85.73
77351;BME280;66420;50.246;14.320;2023-02-26T00:17:38;98653.91;;;-1.13;85.65
77351;BME280;66420;50.246;14.320;2023-02-26T00:20:25;98648.03;;;-1.10;85.44
77351;BME280;66420;50.246;14.320;2023-02-26T00:23:13;98662.22;;;-1.14;85.94
77351;BME280;66420;50.246;14.320;2023-02-26T00:25:58;98663.91;;;-1.08;85.98
77351;BME280;66420;50.246;14.320;2023-02-26T00:28:42;98662.25;;;-1.09;86.17
77351;BME280;66420;50.246;14.320;2023-02-26T00:31:27;98659.81;;;-1.16;85.73
77351;BME280;66420;50.246;14.320;2023-02-26T00:34:12;98663.56;;;-1.17;85.75
77351;BME280;66420;50.246;14.320;2023-02-26T00:42:29;98662.75;;;-1.17;86.26
77351;BME280;66420;50.246;14.320;2023-02-26T00:45:14;98667.88;;;-1.16;86.28
77351;BME280;66420;50.246;14.320;2023-02-26T00:50:58;98670.53;;;-1.16;86.00
77351;BME280;66420;50.246;14.320;2023-02-26T00:53:54;98666.81;;;-1.15;85.92
77351;BME280;66420;50.246;14.320;2023-02-26T00:56:42;98664.56;;;-1.23;86.27
77351;BME280;66420;50.246;14.320;2023-02-26T00:59:27;98671.50;;;-1.27;86.48
77351;BME280;66420;50.246;14.320;2023-02-26T01:02:12;98676.28;;;-1.34;87.19
77351;BME280;66420;50.246;14.320;2023-02-26T01:04:57;98674.66;;;-1.35;86.44
77351;BME280;66420;50.246;14.320;2023-02-26T01:07:53;98679.16;;;-1.41;86.65
77351;BME280;66420;50.246;14.320;2023-02-26T01:10:40;98684.22;;;-1.44;86.38
77351;BME280;66420;50.246;14.320;2023-02-26T01:13:25;98686.97;;;-1.39;86.31
77351;BME280;66420;50.246;14.320;2023-02-26T01:16:17;98683.91;;;-1.48;86.20
77351;BME280;66420;50.246;14.320;2023-02-26T01:19:24;98684.72;;;-1.47;84.92
77351;BME280;66420;50.246;14.320;2023-02-26T01:25:06;98687.31;;;-1.79;86.14
77351;BME280;66420;50.246;14.320;2023-02-26T01:27:52;98705.16;;;-1.90;86.43
77351;BME280;66420;50.246;14.320;2023-02-26T01:30:37;98706.84;;;-1.84;85.75
77351;BME280;66420;50.246;14.320;2023-02-26T01:36:32;98703.84;;;-1.65;84.05
77351;BME280;66420;50.246;14.320;2023-02-26T01:42:42;98710.25;;;-1.66;84.68
77351;BME280;66420;50.246;14.320;2023-02-26T01:45:34;98710.31;;;-1.61;84.66
77351;BME280;66420;50.246;14.320;2023-02-26T01:48:48;98712.75;;;-1.60;84.83
77351;BME280;66420;50.246;14.320;2023-02-26T01:51:44;98723.06;;;-1.52;83.93
77351;BME280;66420;50.246;14.320;2023-02-26T01:54:31;98722.78;;;-1.50;83.63
77351;BME280;66420;50.246;14.320;2023-02-26T01:57:17;98726.50;;;-1.51;82.90
77351;BME280;66420;50.246;14.320;2023-02-26T02:00:05;98730.88;;;-1.45;82.65
77351;BME280;66420;50.246;14.320;2023-02-26T02:02:52;98731.16;;;-1.47;82.56
77351;BME280;66420;50.246;14.320;2023-02-26T02:05:47;98735.13;;;-1.49;83.65
77351;BME280;66420;50.246;14.320;2023-02-26T02:08:34;98728.16;;;-1.50;83.19
77351;BME280;66420;50.246;14.320;2023-02-26T02:11:19;98741.31;;;-1.49;82.57
77351;BME280;66420;50.246;14.320;2023-02-26T02:14:22;98737.38;;;-1.41;82.82
77351;BME280;66420;50.246;14.320;2023-02-26T02:17:33;98735.25;;;-1.39;82.13
77351;BME280;66420;50.246;14.320;2023-02-26T02:20:51;98740.94;;;-1.36;82.43
77351;BME280;66420;50.246;14.320;2023-02-26T02:24:13;98745.00;;;-1.33;81.83
77351;BME280;66420;50.246;14.320;2023-02-26T02:30:30;98746.59;;;-1.32;81.63
77351;BME280;66420;50.246;14.320;2023-02-26T02:33:22;98758.44;;;-1.28;81.62
77351;BME280;66420;50.246;14.320;2023-02-26T02:36:18;98755.75;;;-1.28;81.88
77351;BME280;66420;50.246;14.320;2023-02-26T02:39:18;98756.34;;;-1.26;81.19
77351;BME280;66420;50.246;14.320;2023-02-26T02:42:08;98764.56;;;-1.33;81.67
77351;BME280;66420;50.246;14.320;2023-02-26T02:45:06;98758.66;;;-1.35;81.47
77351;BME280;66420;50.246;14.320;2023-02-26T02:48:08;98783.56;;;-1.39;81.32
77351;BME280;66420;50.246;14.320;2023-02-26T02:50:57;98773.81;;;-1.45;81.66
77351;BME280;66420;50.246;14.320;2023-02-26T02:56:40;98781.94;;;-1.40;81.12
77351;BME280;66420;50.246;14.320;2023-02-26T02:59:36;98786.78;;;-1.37;81.16
77351;BME280;66420;50.246;14.320;2023-02-26T03:05:12;98800.78;;;-1.35;81.37
77351;BME280;66420;50.246;14.320;2023-02-26T03:08:05;98796.53;;;-1.31;80.64
77351;BME280;66420;50.246;14.320;2023-02-26T03:10:51;98798.56;;;-1.43;81.69
77351;BME280;66420;50.246;14.320;2023-02-26T03:13:36;98808.16;;;-1.47;81.31
77351;BME280;66420;50.246;14.320;2023-02-26T03:22:12;98822.50;;;-1.58;81.54
77351;BME280;66420;50.246;14.320;2023-02-26T03:28:25;98827.25;;;-1.44;81.65
77351;BME280;66420;50.246;14.320;2023-02-26T03:31:24;98824.75;;;-1.50;81.16
77351;BME280;66420;50.246;14.320;2023-02-26T03:34:18;98834.84;;;-1.57;81.09
77351;BME280;66420;50.246;14.320;2023-02-26T03:37:10;98842.16;;;-1.53;81.47
77351;BME280;66420;50.246;14.320;2023-02-26T03:40:01;98844.56;;;-1.51;81.36
77351;BME280;66420;50.246;14.320;2023-02-26T03:42:50;98846.28;;;-1.45;80.80
77351;BME280;66420;50.246;14.320;2023-02-26T03:45:38;98850.59;;;-1.44;81.08
77351;BME280;66420;50.246;14.320;2023-02-26T03:48:26;98854.84;;;-1.48;80.97
77351;BME280;66420;50.246;14.320;2023-02-26T03:51:13;98863.44;;;-1.46;81.89
77351;BME280;66420;50.246;14.320;2023-02-26T03:54:13;98861.94;;;-1.37;81.44
77351;BME280;66420;50.246;14.320;2023-02-26T03:56:59;98867.81;;;-1.40;82.26
77351;BME280;66420;50.246;14.320;2023-02-26T03:59:44;98877.75;;;-1.41;81.87
77351;BME280;66420;50.246;14.320;2023-02-26T04:02:41;98881.63;;;-1.31;81.33
77351;BME280;66420;50.246;14.320;2023-02-26T04:05:34;98871.91;;;-1.38;81.65
77351;BME280;66420;50.246;14.320;2023-02-26T04:08:21;98876.91;;;-1.41;82.13
77351;BME280;66420;50.246;14.320;2023-02-26T04:11:10;98881.31;;;-1.35;81.90
77351;BME280;66420;50.246;14.320;2023-02-26T04:13:55;98887.19;;;-1.38;82.59
77351;BME280;66420;50.246;14.320;2023-02-26T04:16:41;98892.56;;;-1.38;81.99
77351;BME280;66420;50.246;14.320;2023-02-26T04:19:26;98887.66;;;-1.41;81.58
77351;BME280;66420;50.246;14.320;2023-02-26T04:22:10;98893.09;;;-1.36;81.05
77351;BME280;66420;50.246;14.320;2023-02-26T04:24:55;98891.72;;;-1.39;81.05
77351;BME280;66420;50.246;14.320;2023-02-26T04:27:40;98906.50;;;-1.36;81.35
77351;BME280;66420;50.246;14.320;2023-02-26T04:30:24;98908.78;;;-1.28;80.51
77351;BME280;66420;50.246;14.320;2023-02-26T04:33:09;98913.66;;;-1.25;80.03
77351;BME280;66420;50.246;14.320;2023-02-26T04:35:53;98915.28;;;-1.24;79.59
77351;BME280;66420;50.246;14.320;2023-02-26T04:38:37;98913.91;;;-1.26;79.04
77351;BME280;66420;50.246;14.320;2023-02-26T04:41:23;98915.78;;;-1.27;79.90
77351;BME280;66420;50.246;14.320;2023-02-26T04:44:07;98929.19;;;-1.27;80.06
77351;BME280;66420;50.246;14.320;2023-02-26T04:46:56;98913.34;;;-1.28;80.55
77351;BME280;66420;50.246;14.320;2023-02-26T04:49:41;98926.81;;;-1.23;80.21
77351;BME280;66420;50.246;14.320;2023-02-26T04:52:25;98927.09;;;-1.25;80.58
77351;BME280;66420;50.246;14.320;2023-02-26T04:55:09;98934.63;;;-1.22;80.26
77351;BME280;66420;50.246;14.320;2023-02-26T04:57:54;98937.75;;;-1.30;80.46
77351;BME280;66420;50.246;14.320;2023-02-26T05:00:39;98935.97;;;-1.24;79.93
77351;BME280;66420;50.246;14.320;2023-02-26T05:03:24;98939.50;;;-1.19;78.43
77351;BME280;66420;50.246;14.320;2023-02-26T05:06:09;98940.75;;;-1.26;78.94
77351;BME280;66420;50.246;14.320;2023-02-26T05:08:54;98949.44;;;-1.19;77.96
77351;BME280;66420;50.246;14.320;2023-02-26T05:11:38;98950.19;;;-1.24;78.48
77351;BME280;66420;50.246;14.320;2023-02-26T05:14:22;98947.63;;;-1.14;78.26
77351;BME280;66420;50.246;14.320;2023-02-26T05:17:07;98952.91;;;-1.19;78.58
77351;BME280;66420;50.246;14.320;2023-02-26T05:19:52;98966.41;;;-1.14;77.35
77351;BME280;66420;50.246;14.320;2023-02-26T05:22:37;98962.59;;;-1.18;77.35
77351;BME280;66420;50.246;14.320;2023-02-26T05:25:22;98964.25;;;-1.17;78.14
77351;BME280;66420;50.246;14.320;2023-02-26T05:28:07;98959.84;;;-1.23;78.68
77351;BME280;66420;50.246;14.320;2023-02-26T05:30:52;98968.97;;;-1.24;77.51
77351;BME280;66420;50.246;14.320;2023-02-26T05:33:37;98973.34;;;-1.18;77.99
77351;BME280;66420;50.246;14.320;2023-02-26T05:36:22;98975.22;;;-1.18;78.48
77351;BME280;66420;50.246;14.320;2023-02-26T05:39:08;98983.28;;;-1.18;78.83
77351;BME280;66420;50.246;14.320;2023-02-26T05:41:53;98988.91;;;-1.20;78.27
77351;BME280;66420;50.246;14.320;2023-02-26T05:44:39;98986.78;;;-1.18;78.62
77351;BME280;66420;50.246;14.320;2023-02-26T05:47:23;98993.06;;;-1.29;78.72
77351;BME280;66420;50.246;14.320;2023-02-26T05:50:09;98999.88;;;-1.21;78.67
77351;BME280;66420;50.246;14.320;2023-02-26T05:52:54;99010.94;;;-1.18;78.08
77351;BME280;66420;50.246;14.320;2023-02-26T05:55:39;99010.94;;;-1.18;77.85
77351;BME280;66420;50.246;14.320;2023-02-26T05:58:23;99017.44;;;-1.14;77.10
77351;BME280;66420;50.246;14.320;2023-02-26T06:01:08;99025.50;;;-1.14;78.28
77351;BME280;66420;50.246;14.320;2023-02-26T06:03:53;99041.13;;;-1.11;77.26
77351;BME280;66420;50.246;14.320;2023-02-26T06:06:37;99030.84;;;-1.14;78.57
77351;BME280;66420;50.246;14.320;2023-02-26T06:09:22;99040.69;;;-1.03;77.55
77351;BME280;66420;50.246;14.320;2023-02-26T06:12:07;99050.63;;;-1.03;76.47
77351;BME280;66420;50.246;14.320;2023-02-26T06:14:51;99053.16;;;-0.97;76.57
77351;BME280;66420;50.246;14.320;2023-02-26T06:17:36;99055.34;;;-0.94;75.40
77351;BME280;66420;50.246;14.320;2023-02-26T06:20:21;99060.72;;;-0.94;76.08
77351;BME280;66420;50.246;14.320;2023-02-26T06:23:05;99064.75;;;-0.91;76.49
77351;BME280;66420;50.246;14.320;2023-02-26T06:25:51;99075.19;;;-0.95;75.50
77351;BME280;66420;50.246;14.320;2023-02-26T06:28:36;99086.59;;;-0.87;76.32
77351;BME280;66420;50.246;14.320;2023-02-26T06:31:21;99097.97;;;-0.80;75.49
77351;BME280;66420;50.246;14.320;2023-02-26T06:34:05;99096.34;;;-0.65;75.28
77351;BME280;66420;50.246;14.320;2023-02-26T06:36:49;99094.22;;;-0.41;74.36
77351;BME280;66420;50.246;14.320;2023-02-26T06:39:34;99102.56;;;-0.21;73.93
77351;BME280;66420;50.246;14.320;2023-02-26T06:42:19;99109.81;;;0.00;73.37
77351;BME280;66420;50.246;14.320;2023-02-26T06:45:03;99116.69;;;-0.09;73.03
77351;BME280;66420;50.246;14.320;2023-02-26T06:47:49;99112.13;;;-0.08;73.38
77351;BME280;66420;50.246;14.320;2023-02-26T06:50:33;99120.56;;;0.00;72.72
77351;BME280;66420;50.246;14.320;2023-02-26T06:53:18;99127.63;;;0.07;71.95
77351;BME280;66420;50.246;14.320;2023-02-26T06:56:04;99120.25;;;0.19;72.20
77351;BME280;66420;50.246;14.320;2023-02-26T06:58:48;99135.78;;;0.12;72.76
77351;BME280;66420;50.246;14.320;2023-02-26T07:01:33;99137.88;;;0.10;72.65
77351;BME280;66420;50.246;14.320;2023-02-26T07:04:17;99141.09;;;0.07;73.22
77351;BME280;66420;50.246;14.320;2023-02-26T07:07:02;99144.03;;;0.05;72.78
77351;BME280;66420;50.246;14.320;2023-02-26T07:09:46;99157.88;;;0.14;72.27
77351;BME280;66420;50.246;14.320;2023-02-26T07:12:31;99158.72;;;0.41;71.54
77351;BME280;66420;50.246;14.320;2023-02-26T07:15:15;99163.06;;;0.96;70.15
77351;BME280;66420;50.246;14.320;2023-02-26T07:18:00;99162.09;;;0.80;69.98
77351;BME280;66420;50.246;14.320;2023-02-26T07:20:48;99168.53;;;0.52;69.71
77351;BME280;66420;50.246;14.320;2023-02-26T07:23:32;99173.84;;;0.47;70.09
77351;BME280;66420;50.246;14.320;2023-02-26T07:26:17;99179.53;;;0.51;70.44
77351;BME280;66420;50.246;14.320;2023-02-26T07:29:02;99189.53;;;0.50;70.52
77351;BME280;66420;50.246;14.320;2023-02-26T07:31:46;99183.09;;;0.56;68.93
77351;BME280;66420;50.246;14.320;2023-02-26T07:34:31;99187.59;;;0.72;69.31
77351;BME280;66420;50.246;14.320;2023-02-26T07:37:16;99189.66;;;0.87;68.77
77351;BME280;66420;50.246;14.320;2023-02-26T07:40:00;99197.53;;;1.25;67.60
77351;BME280;66420;50.246;14.320;2023-02-26T07:42:45;99195.28;;;1.49;65.22
77351;BME280;66420;50.246;14.320;2023-02-26T07:45:30;99201.84;;;2.00;64.86
77351;BME280;66420;50.246;14.320;2023-02-26T07:48:15;99194.03;;;2.04;64.75
77351;BME280;66420;50.246;14.320;2023-02-26T07:50:59;99208.28;;;1.94;63.80
77351;BME280;66420;50.246;14.320;2023-02-26T07:53:44;99211.94;;;2.25;63.22
77351;BME280;66420;50.246;14.320;2023-02-26T07:56:28;99214.59;;;2.82;60.26
77351;BME280;66420;50.246;14.320;2023-02-26T07:59:13;99218.63;;;2.70;60.15
77351;BME280;66420;50.246;14.320;2023-02-26T08:01:59;99216.31;;;2.36;59.92
77351;BME280;66420;50.246;14.320;2023-02-26T08:04:43;99227.22;;;2.56;62.39
77351;BME280;66420;50.246;14.320;2023-02-26T08:07:28;99235.84;;;2.53;61.04
77351;BME280;66420;50.246;14.320;2023-02-26T08:10:12;99239.38;;;2.07;60.98
77351;BME280;66420;50.246;14.320;2023-02-26T08:12:57;99244.06;;;2.21;61.65
77351;BME280;66420;50.246;14.320;2023-02-26T08:15:42;99246.66;;;2.06;61.86
77351;BME280;66420;50.246;14.320;2023-02-26T08:18:27;99252.06;;;2.06;62.84
77351;BME280;66420;50.246;14.320;2023-02-26T08:21:12;99256.88;;;2.46;61.27
77351;BME280;66420;50.246;14.320;2023-02-26T08:23:57;99254.13;;;2.36;62.20
77351;BME280;66420;50.246;14.320;2023-02-26T08:26:41;99264.38;;;2.29;61.21
77351;BME280;66420;50.246;14.320;2023-02-26T08:29:28;99271.78;;;2.12;61.51
77351;BME280;66420;50.246;14.320;2023-02-26T08:32:13;99270.22;;;1.79;62.58
77351;BME280;66420;50.246;14.320;2023-02-26T08:34:58;99279.66;;;1.76;63.11
77351;BME280;66420;50.246;14.320;2023-02-26T08:37:43;99279.28;;;1.63;62.15
77351;BME280;66420;50.246;14.320;2023-02-26T08:40:27;99274.81;;;1.78;63.10
77351;BME280;66420;50.246;14.320;2023-02-26T08:43:12;99277.91;;;1.92;62.06
77351;BME280;66420;50.246;14.320;2023-02-26T08:45:57;99284.22;;;2.13;63.11
77351;BME280;66420;50.246;14.320;2023-02-26T08:48:42;99285.91;;;2.19;61.38
77351;BME280;66420;50.246;14.320;2023-02-26T08:51:27;99294.72;;;2.51;61.71
77351;BME280;66420;50.246;14.320;2023-02-26T08:54:12;99302.81;;;2.51;62.04
77351;BME280;66420;50.246;14.320;2023-02-26T08:56:57;99301.59;;;2.79;60.24
77351;BME280;66420;50.246;14.320;2023-02-26T08:59:41;99300.34;;;3.07;59.07
77351;BME280;66420;50.246;14.320;2023-02-26T09:02:27;99303.66;;;2.57;58.88
77351;BME280;66420;50.246;14.320;2023-02-26T09:05:11;99310.28;;;2.86;59.80
77351;BME280;66420;50.246;14.320;2023-02-26T09:07:56;99325.63;;;4.14;58.38
77351;BME280;66420;50.246;14.320;2023-02-26T09:10:41;99318.47;;;4.63;54.46
77351;BME280;66420;50.246;14.320;2023-02-26T09:13:26;99309.69;;;5.46;52.71
77351;BME280;66420;50.246;14.320;2023-02-26T09:16:10;99325.25;;;4.71;52.46
77351;BME280;66420;50.246;14.320;2023-02-26T09:18:56;99326.97;;;3.91;55.15
77351;BME280;66420;50.246;14.320;2023-02-26T09:21:40;99336.69;;;4.47;58.59
77351;BME280;66420;50.246;14.320;2023-02-26T09:24:24;99332.91;;;4.54;58.88
77351;BME280;66420;50.246;14.320;2023-02-26T09:27:09;99339.97;;;4.29;59.27
77351;BME280;66420;50.246;14.320;2023-02-26T09:29:54;99329.69;;;3.76;59.76
77351;BME280;66420;50.246;14.320;2023-02-26T09:32:38;99332.50;;;3.03;60.58
77351;BME280;66420;50.246;14.320;2023-02-26T09:35:23;99333.75;;;2.29;63.12
77351;BME280;66420;50.246;14.320;2023-02-26T09:38:08;99346.81;;;1.73;64.06
77351;BME280;66420;50.246;14.320;2023-02-26T09:40:57;99354.19;;;1.56;65.67
77351;BME280;66420;50.246;14.320;2023-02-26T09:43:59;99350.81;;;1.17;66.34
77351;BME280;66420;50.246;14.320;2023-02-26T09:47:29;99362.94;;;1.14;67.08
77351;BME280;66420;50.246;14.320;2023-02-26T09:50:36;99372.44;;;1.22;67.53
77351;BME280;66420;50.246;14.320;2023-02-26T09:53:31;99371.56;;;1.43;66.56
77351;BME280;66420;50.246;14.320;2023-02-26T09:56:21;99372.78;;;1.84;66.09
77351;BME280;66420;50.246;14.320;2023-02-26T09:59:08;99371.88;;;2.37;64.73
77351;BME280;66420;50.246;14.320;2023-02-26T10:01:55;99376.44;;;2.74;63.46
77351;BME280;66420;50.246;14.320;2023-02-26T10:04:49;99376.41;;;2.68;62.57
77351;BME280;66420;50.246;14.320;2023-02-26T10:13:51;99391.63;;;1.79;64.49
77351;BME280;66420;50.246;14.320;2023-02-26T10:16:44;99401.47;;;1.63;66.72
77351;BME280;66420;50.246;14.320;2023-02-26T10:19:37;99404.06;;;1.53;66.62
77351;BME280;66420;50.246;14.320;2023-02-26T10:22:43;99404.75;;;1.70;67.02
77351;BME280;66420;50.246;14.320;2023-02-26T10:26:03;99406.88;;;1.63;66.77
77351;BME280;66420;50.246;14.320;2023-02-26T10:28:52;99408.56;;;1.69;68.10
77351;BME280;66420;50.246;14.320;2023-02-26T10:34:49;99414.13;;;1.90;67.84
77351;BME280;66420;50.246;14.320;2023-02-26T10:37:56;99420.84;;;2.14;67.92
77351;BME280;66420;50.246;14.320;2023-02-26T10:41:01;99421.38;;;2.16;67.40
77351;BME280;66420;50.246;14.320;2023-02-26T10:43:51;99416.78;;;1.85;67.14
77351;BME280;66420;50.246;14.320;2023-02-26T10:50:00;99427.94;;;1.66;66.97
77351;BME280;66420;50.246;14.320;2023-02-26T10:52:46;99432.72;;;1.59;68.84
77351;BME280;66420;50.246;14.320;2023-02-26T10:58:36;99434.91;;;1.62;67.67
77351;BME280;66420;50.246;14.320;2023-02-26T11:01:24;99451.59;;;1.59;68.25
77351;BME280;66420;50.246;14.320;2023-02-26T11:04:14;99444.06;;;1.88;68.81
77351;BME280;66420;50.246;14.320;2023-02-26T11:07:02;99443.91;;;2.00;66.65
77351;BME280;66420;50.246;14.320;2023-02-26T11:09:49;99444.47;;;1.75;65.13
77351;BME280;66420;50.246;14.320;2023-02-26T11:12:33;99446.31;;;1.69;65.79
77351;BME280;66420;50.246;14.320;2023-02-26T11:15:21;99452.13;;;1.83;67.44
77351;BME280;66420;50.246;14.320;2023-02-26T11:18:13;99450.91;;;1.96;67.19
77351;BME280;66420;50.246;14.320;2023-02-26T11:21:04;99450.91;;;1.69;66.72
77351;BME280;66420;50.246;14.320;2023-02-26T11:23:56;99453.50;;;1.86;67.46
77351;BME280;66420;50.246;14.320;2023-02-26T11:26:46;99453.06;;;1.72;66.30
77351;BME280;66420;50.246;14.320;2023-02-26T11:29:37;99450.28;;;1.40;66.67
77351;BME280;66420;50.246;14.320;2023-02-26T11:32:34;99452.28;;;1.50;66.79
77351;BME280;66420;50.246;14.320;2023-02-26T11:35:22;99456.59;;;1.72;67.09
77351;BME280;66420;50.246;14.320;2023-02-26T11:38:15;99465.16;;;1.91;66.67
77351;BME280;66420;50.246;14.320;2023-02-26T11:41:02;99459.81;;;1.69;66.93
77351;BME280;66420;50.246;14.320;2023-02-26T11:44:03;99469.72;;;1.64;68.07
77351;BME280;66420;50.246;14.320;2023-02-26T11:46:50;99473.28;;;1.48;68.25
77351;BME280;66420;50.246;14.320;2023-02-26T11:49:49;99483.38;;;1.57;68.33
77351;BME280;66420;50.246;14.320;2023-02-26T11:52:40;99482.06;;;1.82;66.13
77351;BME280;66420;50.246;14.320;2023-02-26T11:55:31;99486.34;;;1.77;65.88
77351;BME280;66420;50.246;14.320;2023-02-26T11:58:19;99476.59;;;1.76;66.47
77351;BME280;66420;50.246;14.320;2023-02-26T12:01:07;99465.56;;;1.56;67.20
77351;BME280;66420;50.246;14.320;2023-02-26T12:03:51;99481.13;;;1.49;68.56
77351;BME280;66420;50.246;14.320;2023-02-26T12:06:37;99481.13;;;1.49;66.88
77351;BME280;66420;50.246;14.320;2023-02-26T12:09:24;99476.41;;;1.61;66.01
77351;BME280;66420;50.246;14.320;2023-02-26T12:15:36;99494.53;;;1.66;65.62
77351;BME280;66420;50.246;14.320;2023-02-26T12:43:30;99515.66;;;1.69;63.15
77351;BME280;66420;50.246;14.320;2023-02-26T12:52:57;99496.16;;;1.89;63.62
77351;BME280;66420;50.246;14.320;2023-02-26T12:55:50;99507.97;;;1.83;65.25
77351;BME280;66420;50.246;14.320;2023-02-26T13:14:15;99522.94;;;1.30;64.16
77351;BME280;66420;50.246;14.320;2023-02-26T13:20:10;99531.25;;;1.45;64.33
77351;BME280;66420;50.246;14.320;2023-02-26T13:23:01;99540.41;;;1.88;63.53
77351;BME280;66420;50.246;14.320;2023-02-26T13:25:54;99516.25;;;2.93;59.78
77351;BME280;66420;50.246;14.320;2023-02-26T13:32:11;99524.69;;;3.44;57.04
77351;BME280;66420;50.246;14.320;2023-02-26T13:52:29;99545.41;;;1.57;61.47
77351;BME280;66420;50.246;14.320;2023-02-26T13:55:43;99539.63;;;2.41;60.29
77351;BME280;66420;50.246;14.320;2023-02-26T13:58:34;99537.09;;;2.34;60.92
77351;BME280;66420;50.246;14.320;2023-02-26T14:01:31;99538.50;;;2.68;60.20
77351;BME280;66420;50.246;14.320;2023-02-26T14:07:14;99536.16;;;2.77;58.35
77351;BME280;66420;50.246;14.320;2023-02-26T14:10:02;99529.69;;;2.78;59.28
77351;BME280;66420;50.246;14.320;2023-02-26T14:13:17;99545.66;;;2.53;57.98
77351;BME280;66420;50.246;14.320;2023-02-26T14:16:12;99547.66;;;2.09;59.54
77351;BME280;66420;50.246;14.320;2023-02-26T14:27:41;99563.50;;;1.78;61.54
77351;BME280;66420;50.246;14.320;2023-02-26T14:30:29;99559.03;;;1.67;62.18
77351;BME280;66420;50.246;14.320;2023-02-26T14:33:18;99570.59;;;1.63;62.70
77351;BME280;66420;50.246;14.320;2023-02-26T14:36:05;99585.13;;;1.40;62.85
77351;BME280;66420;50.246;14.320;2023-02-26T14:39:01;99580.34;;;1.09;62.18
77351;BME280;66420;50.246;14.320;2023-02-26T14:41:48;99585.31;;;0.83;63.29
77351;BME280;66420;50.246;14.320;2023-02-26T14:44:44;99583.84;;;0.59;63.46
77351;BME280;66420;50.246;14.320;2023-02-26T14:47:29;99579.66;;;0.52;64.36
77351;BME280;66420;50.246;14.320;2023-02-26T14:50:17;99583.41;;;0.51;65.44
77351;BME280;66420;50.246;14.320;2023-02-26T15:17:47;99596.44;;;1.42;64.36
77351;BME280;66420;50.246;14.320;2023-02-26T15:20:52;99603.31;;;1.33;64.04
77351;BME280;66420;50.246;14.320;2023-02-26T15:23:44;99604.97;;;1.34;62.92
77351;BME280;66420;50.246;14.320;2023-02-26T15:26:33;99603.19;;;1.23;63.01
77351;BME280;66420;50.246;14.320;2023-02-26T15:29:25;99606.63;;;1.02;63.11
77351;BME280;66420;50.246;14.320;2023-02-26T15:32:26;99608.59;;;0.73;63.49
77351;BME280;66420;50.246;14.320;2023-02-26T15:35:20;99615.97;;;0.49;64.24
77351;BME280;66420;50.246;14.320;2023-02-26T15:38:05;99617.94;;;0.25;64.16
77351;BME280;66420;50.246;14.320;2023-02-26T15:40:51;99620.31;;;0.10;64.76
77351;BME280;66420;50.246;14.320;2023-02-26T15:43:37;99627.53;;;-0.07;64.91
77351;BME280;66420;50.246;14.320;2023-02-26T15:46:28;99629.75;;;-0.16;66.12
77351;BME280;66420;50.246;14.320;2023-02-26T15:49:22;99635.84;;;-0.20;66.02
77351;BME280;66420;50.246;14.320;2023-02-26T15:52:12;99641.94;;;-0.36;67.00
77351;BME280;66420;50.246;14.320;2023-02-26T15:55:02;99633.66;;;-0.35;67.08
77351;BME280;66420;50.246;14.320;2023-02-26T15:57:48;99645.94;;;-0.39;68.49
77351;BME280;66420;50.246;14.320;2023-02-26T16:00:35;99641.94;;;-0.36;67.59
77351;BME280;66420;50.246;14.320;2023-02-26T16:03:38;99649.56;;;-0.33;67.28
77351;BME280;66420;50.246;14.320;2023-02-26T16:06:27;99649.91;;;-0.30;66.76
77351;BME280;66420;50.246;14.320;2023-02-26T16:09:24;99655.16;;;-0.35;67.53
77351;BME280;66420;50.246;14.320;2023-02-26T16:12:17;99660.66;;;-0.30;68.30
77351;BME280;66420;50.246;14.320;2023-02-26T16:15:06;99665.91;;;-0.35;70.24
77351;BME280;66420;50.246;14.320;2023-02-26T16:17:55;99665.81;;;-0.52;72.70
77351;BME280;66420;50.246;14.320;2023-02-26T16:20:53;99665.69;;;-0.68;73.30
77351;BME280;66420;50.246;14.320;2023-02-26T16:23:47;99677.00;;;-0.78;74.06
77351;BME280;66420;50.246;14.320;2023-02-26T16:26:51;99686.31;;;-1.04;75.16
77351;BME280;66420;50.246;14.320;2023-02-26T16:29:47;99688.19;;;-1.04;75.47
77351;BME280;66420;50.246;14.320;2023-02-26T16:32:34;99702.50;;;-1.22;76.41
77351;BME280;66420;50.246;14.320;2023-02-26T16:35:21;99709.34;;;-1.38;76.70
77351;BME280;66420;50.246;14.320;2023-02-26T16:38:25;99719.25;;;-1.38;76.84
77351;BME280;66420;50.246;14.320;2023-02-26T16:41:11;99720.91;;;-1.55;77.08
77351;BME280;66420;50.246;14.320;2023-02-26T16:43:58;99735.41;;;-1.74;77.60
77351;BME280;66420;50.246;14.320;2023-02-26T16:46:45;99738.88;;;-1.92;78.43
77351;BME280;66420;50.246;14.320;2023-02-26T16:49:32;99748.50;;;-2.03;79.12
77351;BME280;66420;50.246;14.320;2023-02-26T16:52:21;99749.59;;;-2.10;79.19
77351;BME280;66420;50.246;14.320;2023-02-26T16:55:07;99758.41;;;-2.03;79.67
77351;BME280;66420;50.246;14.320;2023-02-26T16:58:04;99766.47;;;-1.85;78.71
77351;BME280;66420;50.246;14.320;2023-02-26T17:01:04;99762.94;;;-1.49;77.33
77351;BME280;66420;50.246;14.320;2023-02-26T17:03:58;99770.38;;;-1.15;75.55
77351;BME280;66420;50.246;14.320;2023-02-26T17:06:46;99777.97;;;-1.12;75.72
77351;BME280;66420;50.246;14.320;2023-02-26T17:09:39;99775.41;;;-1.07;75.52
77351;BME280;66420;50.246;14.320;2023-02-26T17:12:37;99781.97;;;-1.03;74.94
77351;BME280;66420;50.246;14.320;2023-02-26T17:15:30;99784.25;;;-0.88;74.42
77351;BME280;66420;50.246;14.320;2023-02-26T17:18:15;99795.81;;;-0.87;73.91
77351;BME280;66420;50.246;14.320;2023-02-26T17:21:00;99808.22;;;-0.75;74.49
77351;BME280;66420;50.246;14.320;2023-02-26T17:23:47;99811.25;;;-0.71;73.45
77351;BME280;66420;50.246;14.320;2023-02-26T17:26:31;99814.44;;;-0.63;74.41
77351;BME280;66420;50.246;14.320;2023-02-26T17:29:37;99816.56;;;-0.53;74.40
77351;BME280;66420;50.246;14.320;2023-02-26T17:32:24;99829.25;;;-0.42;74.04